Date,TemperatureHighF,TemperatureAvgF,TemperatureLowF,DewpointHighF,DewpointAvgF,DewpointLowF,HumidityHigh,HumidityAvg,HumidityLow,PressureMaxIn,PressureMinIn,WindSpeedMaxMPH,WindSpeedAvgMPH,GustSpeedMaxMPH,PrecipitationSumIn
2013-10-1,89.0,80.1,74.0,-99.9,-99.9,-99.9,0,0,100,0.00,40.00,11,8,12,0.00
2013-10-2,89.0,77.5,69.0,-99.9,-99.9,-99.9,0,0,100,0.00,40.00,13,6,17,0.00
2013-10-3,87.0,75.1,65.0,-99.9,-99.9,-99.9,0,0,100,0.00,40.00,16,7,16,0.00
2013-10-4,80.0,72.8,66.0,-99.9,-99.9,-99.9,0,0,100,0.00,40.00,35,16,37,0.00
2013-10-5,81.0,70.4,61.0,-99.9,-99.9,-99.9,0,0,100,0.00,40.00,22,10,28,0.00
2013-10-6,86.0,75.5,65.0,-99.9,-99.9,-99.9,0,0,100,0.00,40.00,16,8,26,0.00
2013-10-7,87.0,73.5,60.0,-99.9,-99.9,-99.9,0,0,100,0.00,40.00,12,4,13,0.00
2013-10-8,86.0,73.5,62.0,-99.9,-99.9,-99.9,0,0,100,0.00,40.00,12,4,14,0.00
2013-10-9,69.0,63.7,58.0,-99.9,-99.9,-99.9,0,0,100,0.00,40.00,20,13,29,0.00
2013-10-10,69.0,60.4,49.0,-99.9,-99.9,-99.9,0,0,100,0.00,40.00,17,7,26,0.00
2013-10-11,77.0,64.2,50.0,-99.9,-99.9,-99.9,0,0,100,0.00,40.00,14,5,14,0.00
2013-10-12,81.0,68.4,53.0,-99.9,-99.9,-99.9,0,0,100,0.00,40.00,12,4,14,0.00
2013-10-13,81.0,69.9,58.0,-99.9,-99.9,-99.9,0,0,100,0.00,40.00,14,8,19,0.00
2013-10-14,80.0,68.6,56.0,-99.9,-99.9,-99.9,0,0,100,0.00,40.00,17,8,24,0.00
2013-10-15,81.0,71.7,60.0,-99.9,-99.9,-99.9,0,0,100,0.00,40.00,16,8,22,0.00
2013-10-16,78.0,67.8,60.0,-99.9,-99.9,-99.9,0,0,100,0.00,40.00,14,7,20,0.00
2013-10-17,81.0,67.1,55.0,-99.9,-99.9,-99.9,0,0,100,0.00,40.00,11,5,13,0.00
2013-10-18,84.0,71.0,53.0,-99.9,-99.9,-99.9,0,0,100,0.00,40.00,14,6,19,0.00
2013-10-19,87.0,73.7,63.0,-99.9,-99.9,-99.9,0,0,100,0.00,40.00,10,6,19,0.00
2013-10-20,87.0,73.5,57.0,-99.9,-99.9,-99.9,0,0,100,0.00,40.00,12,4,13,0.00
2013-10-21,87.0,72.1,58.0,-99.9,-99.9,-99.9,0,0,100,0.00,40.00,13,6,16,0.00
2013-10-22,87.0,74.6,58.0,-99.9,-99.9,-99.9,0,0,100,0.00,40.00,16,6,16,0.00
2013-10-23,86.0,74.7,60.0,-99.9,-99.9,-99.9,0,0,100,0.00,40.00,13,4,14,0.00
2013-10-24,85.0,72.9,58.0,-99.9,-99.9,-99.9,0,0,100,0.00,40.00,16,6,17,0.00
2013-10-25,86.0,71.2,55.0,-99.9,-99.9,-99.9,0,0,100,0.00,40.00,12,6,15,0.00
2013-10-26,87.0,76.8,61.0,-99.9,-99.9,-99.9,0,0,100,0.00,40.00,10,6,16,0.00
2013-10-27,87.0,75.3,61.0,-99.9,-99.9,-99.9,0,0,100,0.00,40.00,16,5,16,0.00
2013-10-28,74.0,64.4,59.0,-99.9,-99.9,-99.9,0,0,100,0.00,40.00,23,12,32,0.00
2013-10-29,66.0,58.9,51.0,-99.9,-99.9,-99.9,0,0,100,0.00,40.00,23,9,23,0.00
2013-10-30,70.0,60.7,49.0,-99.9,-99.9,-99.9,0,0,100,0.00,40.00,16,6,16,0.00
2013-10-31,73.0,63.8,48.0,-99.9,-99.9,-99.9,0,0,100,0.00,40.00,14,-12,20,0.00